Time;durP1;ratioP1;P1;durP2;ratioP2;P2;SDS_P1;SDS_P2;PMS_P1;PMS_P2;Temp;Humidity;BMP_temperature;BMP_pressure;BME280_temperature;BME280_humidity;BME280_pressure;Samples;Min_cycle;Max_cycle;Signal;HPM_P1;HPM_P2
2022/05/22 00:00:56;;;;;;;5.10;1.00;;;;;;;23.87;32.71;100960.06;2520504;23;20162;-65
2022/05/22 00:01:57;;;;;;;1.67;0.80;;;;;;;23.86;32.52;100963.41;2520649;23;20477;-66
2022/05/22 00:02:58;;;;;;;3.80;1.30;;;;;;;23.83;32.09;100965.19;2520531;23;20135;-66
2022/05/22 00:03:58;;;;;;;3.13;0.93;;;;;;;23.86;32.36;100960.56;2520933;23;20385;-66
2022/05/22 00:04:59;;;;;;;2.37;0.90;;;;;;;23.46;32.16;100893.97;2507842;23;20628;-65
2022/05/22 00:05:59;;;;;;;4.50;1.10;;;;;;;23.76;32.36;100936.66;2508335;23;20159;-65
2022/05/22 00:07:00;;;;;;;4.07;0.97;;;;;;;23.37;32.31;100890.63;2519781;23;20214;-66
2022/05/22 00:08:01;;;;;;;3.80;1.00;;;;;;;23.87;31.98;100956.44;2521086;23;20159;-66
2022/05/22 00:09:01;;;;;;;2.10;0.80;;;;;;;23.92;32.06;100964.19;2521088;23;20163;-66
2022/05/22 00:10:03;;;;;;;2.67;0.90;;;;;;;23.96;31.81;100971.13;2508203;23;20163;-65
2022/05/22 00:11:04;;;;;;;2.90;1.00;;;;;;;23.93;31.49;100965.72;2508434;23;20159;-66
2022/05/22 00:12:07;;;;;;;2.83;1.07;;;;;;;23.92;31.42;100961.38;2497063;23;20219;-66
2022/05/22 00:13:07;;;;;;;2.80;0.93;;;;;;;23.69;31.59;100929.44;2509025;23;20152;-66
2022/05/22 00:14:11;;;;;;;3.30;0.93;;;;;;;23.94;31.23;100959.56;2521684;23;20407;-66
2022/05/22 00:15:15;;;;;;;2.40;0.80;;;;;;;24.06;31.20;100968.81;2521391;23;20162;-66
2022/05/22 00:17:35;;;;;;;2.23;0.90;;;;;;;24.09;31.26;100973.44;2521034;23;20351;-66
2022/05/22 00:18:36;;;;;;;4.30;0.70;;;;;;;24.21;30.75;100969.31;2521501;23;20151;-66
2022/05/22 00:19:38;;;;;;;3.10;0.83;;;;;;;24.23;30.96;100966.72;2521429;23;20151;-65
2022/05/22 00:20:38;;;;;;;2.97;1.10;;;;;;;24.11;30.93;100960.28;2521094;23;20158;-65
2022/05/22 00:21:40;;;;;;;3.80;1.00;;;;;;;24.21;31.38;100972.13;2521333;23;20457;-66
2022/05/22 00:22:41;;;;;;;3.63;0.80;;;;;;;24.23;31.01;100967.50;2521647;23;20148;-66
2022/05/22 00:23:43;;;;;;;3.80;1.07;;;;;;;24.17;31.20;100969.56;2508660;23;20463;-66
2022/05/22 00:24:44;;;;;;;1.57;0.73;;;;;;;24.11;31.54;100960.28;2508942;23;20613;-66
2022/05/22 00:25:44;;;;;;;3.87;1.00;;;;;;;24.20;32.20;100968.53;2521469;23;20155;-66
2022/05/22 00:26:45;;;;;;;5.60;1.00;;;;;;;24.20;31.63;100977.00;2520697;23;20202;-66
2022/05/22 00:27:46;;;;;;;2.13;0.90;;;;;;;24.22;32.22;100968.00;2521229;23;20331;-66
2022/05/22 00:28:46;;;;;;;1.93;0.90;;;;;;;24.24;32.84;100968.25;2521248;23;20234;-66
2022/05/22 00:29:47;;;;;;;2.50;1.03;;;;;;;24.23;32.38;100969.53;2508589;23;20227;-66
2022/05/22 00:30:47;;;;;;;2.93;0.73;;;;;;;23.38;32.53;100832.78;2508668;23;20184;-66
2022/05/22 00:31:48;;;;;;;4.57;1.10;;;;;;;24.24;31.66;100962.59;2521301;23;20175;-66
2022/05/22 00:32:50;;;;;;;3.30;1.20;;;;;;;24.22;31.67;100959.50;2521433;23;20159;-66
2022/05/22 00:33:51;;;;;;;1.73;0.80;;;;;;;24.23;32.21;100961.84;2521594;23;20516;-66
2022/05/22 00:34:51;;;;;;;2.87;1.20;;;;;;;24.04;32.68;100923.25;2521445;23;20609;-66
2022/05/22 00:35:52;;;;;;;5.50;1.30;;;;;;;24.20;32.04;100959.28;2521506;23;20230;-66
2022/05/22 00:36:52;;;;;;;10.70;2.30;;;;;;;23.81;32.62;100899.09;2520590;23;20183;-66
2022/05/22 00:37:53;;;;;;;7.77;1.30;;;;;;;24.13;31.71;100959.78;2521361;23;20151;-66
2022/05/22 00:38:53;;;;;;;5.43;1.20;;;;;;;24.07;32.00;100965.47;2521097;23;20194;-66
2022/05/22 00:39:54;;;;;;;5.30;1.10;;;;;;;24.16;31.89;100968.00;2520976;23;20617;-66
2022/05/22 00:40:54;;;;;;;5.30;1.30;;;;;;;24.16;31.97;100961.59;2521471;23;20749;-66
2022/05/22 00:41:57;;;;;;;6.00;1.50;;;;;;;23.58;32.77;100892.69;2521511;23;20610;-66
2022/05/22 00:42:57;;;;;;;3.73;1.20;;;;;;;24.07;33.47;100964.69;2521143;23;20668;-66
2022/05/22 00:44:00;;;;;;;4.70;1.00;;;;;;;24.01;33.53;100959.03;2521531;23;20781;-65
2022/05/22 00:45:01;;;;;;;3.90;1.10;;;;;;;23.73;33.51;100935.63;2521158;23;20155;-66
2022/05/22 00:46:04;;;;;;;3.90;1.23;;;;;;;23.94;33.17;100967.28;2521641;23;20230;-66
2022/05/22 00:47:05;;;;;;;5.40;1.17;;;;;;;23.91;34.73;100973.97;2507710;23;20295;-66
2022/05/22 00:48:06;;;;;;;4.77;1.30;;;;;;;23.87;34.45;100970.59;2508700;23;20155;-66
2022/05/22 00:49:14;;;;;;;3.70;1.50;;;;;;;23.83;35.03;100958.75;2520946;23;20615;-66
2022/05/22 00:50:15;;;;;;;4.70;1.30;;;;;;;23.60;35.18;100931.78;2521013;23;20166;-66
2022/05/22 00:51:31;;;;;;;6.47;1.30;;;;;;;23.21;33.35;100874.44;2521246;23;20423;-66
2022/05/22 00:52:49;;;;;;;7.67;1.67;;;;;;;23.70;34.11;100959.28;2521444;23;20159;-66
2022/05/22 00:53:55;;;;;;;4.57;1.40;;;;;;;23.28;34.74;100902.97;2508763;23;20376;-66
2022/05/22 00:55:05;;;;;;;2.23;1.03;;;;;;;23.58;33.72;100962.63;2509685;23;20360;-66
2022/05/22 00:56:10;;;;;;;9.40;1.10;;;;;;;23.22;33.76;100910.69;2521540;23;20375;-66
2022/05/22 00:57:21;;;;;;;4.70;1.40;;;;;;;23.56;33.79;100963.16;2520529;23;20202;-66
2022/05/22 00:58:27;;;;;;;4.07;0.90;;;;;;;23.61;33.20;100958.78;2508786;23;20163;-66
2022/05/22 00:59:34;;;;;;;6.20;1.20;;;;;;;23.51;33.41;100960.31;2509445;23;20369;-66
2022/05/22 01:00:38;;;;;;;4.43;0.93;;;;;;;23.43;33.17;100959.28;2520914;23;20360;-66
2022/05/22 01:01:40;;;;;;;2.27;0.83;;;;;;;23.48;33.26;100964.94;2521218;23;20858;-66
2022/05/22 01:03:59;;;;;;;3.63;1.00;;;;;;;22.84;33.45;100894.41;2521532;23;20364;-65
2022/05/22 01:05:00;;;;;;;2.90;0.97;;;;;;;23.37;33.50;100964.94;2521104;23;20390;-66
2022/05/22 01:06:09;;;;;;;3.43;1.00;;;;;;;23.36;33.57;100960.56;2521563;23;20626;-65
2022/05/22 01:07:11;;;;;;;5.83;1.10;;;;;;;23.43;33.55;100965.72;2520384;23;20734;-66
2022/05/22 01:08:12;;;;;;;5.40;1.10;;;;;;;23.37;33.60;100958.50;2521296;23;20769;-66
2022/05/22 01:09:12;;;;;;;2.83;0.83;;;;;;;23.32;33.62;100956.44;2520864;23;20411;-66
2022/05/22 01:10:14;;;;;;;4.20;1.20;;;;;;;23.36;33.69;100963.41;2520768;23;20233;-66
2022/05/22 01:11:18;;;;;;;2.67;0.80;;;;;;;22.76;33.79;100870.75;2521211;23;20155;-66
2022/05/22 01:12:22;;;;;;;3.73;1.03;;;;;;;23.33;33.90;100964.41;2521367;23;20183;-65
2022/05/22 01:13:29;;;;;;;3.63;1.10;;;;;;;23.31;33.92;100969.03;2521103;23;20157;-66
2022/05/22 01:14:33;;;;;;;4.47;1.10;;;;;;;23.02;34.18;100924.25;2521453;23;20170;-66
2022/05/22 01:15:33;;;;;;;3.10;1.10;;;;;;;23.33;34.62;100963.66;2508472;23;20166;-66
2022/05/22 01:16:34;;;;;;;3.83;1.00;;;;;;;23.31;34.54;100964.16;2508373;23;20155;-66
2022/05/22 01:17:47;;;;;;;3.43;0.93;;;;;;;23.32;34.50;100965.69;2508085;23;20566;-65
2022/05/22 01:18:51;;;;;;;5.33;1.03;;;;;;;23.35;34.45;100961.84;2510884;23;20140;-66
2022/05/22 01:20:00;;;;;;;2.97;0.97;;;;;;;23.06;35.15;100908.56;2520502;23;20218;-65
2022/05/22 01:21:00;;;;;;;4.50;1.30;;;;;;;23.39;35.11;100967.25;2521038;23;20155;-66
2022/05/22 01:22:05;;;;;;;1.83;1.00;;;;;;;23.43;35.87;100962.88;2521317;23;20155;-66
2022/05/22 01:23:05;;;;;;;1.70;0.93;;;;;;;23.41;34.89;100959.81;2521043;23;20158;-66
2022/05/22 01:24:07;;;;;;;2.67;1.00;;;;;;;23.38;36.08;100971.38;2521464;23;20234;-66
2022/05/22 01:25:09;;;;;;;4.13;1.13;;;;;;;23.39;36.36;100962.34;2521069;23;20161;-66
2022/05/22 01:26:10;;;;;;;5.03;1.17;;;;;;;23.39;37.02;100959.53;2521410;23;20513;-66
2022/05/22 01:27:15;;;;;;;1.03;0.87;;;;;;;23.36;35.80;100956.97;2520356;23;20561;-66
2022/05/22 01:28:18;;;;;;;2.67;1.00;;;;;;;23.39;37.03;100964.44;2521326;23;20182;-66
2022/05/22 01:29:19;;;;;;;4.70;1.00;;;;;;;23.38;37.18;100960.06;2520672;23;20155;-66
2022/05/22 01:30:26;;;;;;;3.03;1.03;;;;;;;23.38;37.24;100962.88;2520927;23;20152;-66
2022/05/22 01:31:26;;;;;;;2.60;0.93;;;;;;;23.16;36.77;100929.66;2508400;23;20152;-66
2022/05/22 01:32:27;;;;;;;3.60;1.00;;;;;;;23.31;36.06;100958.50;2508708;23;20152;-66
2022/05/22 01:33:28;;;;;;;3.07;1.00;;;;;;;23.30;35.73;100964.66;2520881;23;20230;-66
2022/05/22 01:34:28;;;;;;;5.33;1.13;;;;;;;23.30;36.36;100956.97;2521410;23;20163;-66
2022/05/22 01:35:30;;;;;;;2.43;0.90;;;;;;;23.24;36.06;100950.50;2508467;23;20532;-66
2022/05/22 01:36:31;;;;;;;4.50;1.00;;;;;;;23.29;35.94;100958.22;2508819;23;20188;-66
2022/05/22 01:37:31;;;;;;;4.73;1.43;;;;;;;22.78;35.77;100882.28;2520275;23;20221;-66
2022/05/22 01:38:33;;;;;;;5.47;1.20;;;;;;;23.31;36.14;100954.88;2521126;23;20237;-65
2022/05/22 01:39:34;;;;;;;4.40;1.23;;;;;;;23.33;36.28;100958.00;2521142;23;20211;-66
2022/05/22 01:40:34;;;;;;;5.37;1.23;;;;;;;23.31;35.71;100954.88;2520700;23;20212;-66
2022/05/22 01:41:35;;;;;;;3.77;1.43;;;;;;;23.21;35.57;100942.28;2508316;23;20211;-66
2022/05/22 01:42:37;;;;;;;7.27;2.27;;;;;;;23.33;36.21;100953.09;2508472;23;20235;-66
2022/05/22 01:43:37;;;;;;;7.67;1.30;;;;;;;23.25;36.56;100952.06;2520945;23;20151;-66
2022/05/22 01:44:38;;;;;;;4.63;1.03;;;;;;;23.27;36.62;100960.03;2521143;23;20171;-66
2022/05/22 01:45:41;;;;;;;5.57;1.50;;;;;;;22.79;36.76;100888.72;2521170;23;20159;-66
2022/05/22 01:46:41;;;;;;;6.70;1.63;;;;;;;23.27;37.14;100963.63;2520464;23;20155;-66
2022/05/22 01:47:42;;;;;;;7.77;1.60;;;;;;;23.27;37.27;100968.50;2520760;23;20606;-65
2022/05/22 01:48:43;;;;;;;5.07;1.23;;;;;;;23.03;36.66;100943.50;2521153;23;20174;-66
2022/05/22 01:49:44;;;;;;;4.00;1.60;;;;;;;23.22;37.10;100966.44;2521025;23;20179;-66
2022/05/22 01:50:45;;;;;;;6.57;1.60;;;;;;;23.01;37.16;100940.41;2520635;23;20326;-65
2022/05/22 01:51:46;;;;;;;2.80;1.23;;;;;;;23.20;36.50;100966.19;2521166;23;20669;-65
2022/05/22 01:52:46;;;;;;;3.53;1.03;;;;;;;23.16;36.44;100971.28;2520948;23;20504;-65
2022/05/22 01:53:47;;;;;;;2.60;1.00;;;;;;;23.12;36.50;100967.94;2521206;23;20178;-65
2022/05/22 01:54:47;;;;;;;3.73;1.10;;;;;;;23.11;36.47;100964.34;2521070;23;20177;-65
2022/05/22 01:55:50;;;;;;;2.87;0.90;;;;;;;22.89;36.14;100940.91;2521105;23;20618;-66
2022/05/22 01:56:50;;;;;;;4.63;1.13;;;;;;;23.10;36.30;100964.84;2520252;23;20518;-66
2022/05/22 01:57:51;;;;;;;5.33;0.90;;;;;;;23.12;36.70;100962.28;2520914;23;20397;-66
2022/05/22 01:58:51;;;;;;;3.13;0.90;;;;;;;23.12;37.04;100959.44;2520804;23;20580;-65
2022/05/22 01:59:52;;;;;;;2.67;1.10;;;;;;;23.12;36.80;100967.94;2507909;23;20167;-66
2022/05/22 02:00:52;;;;;;;3.80;1.10;;;;;;;22.53;36.64;100886.09;2508353;23;20155;-66
2022/05/22 02:01:53;;;;;;;4.10;1.10;;;;;;;22.66;36.54;100899.72;2520940;23;20210;-66
2022/05/22 02:02:55;;;;;;;2.67;1.20;;;;;;;23.11;36.66;100967.19;2508107;23;20163;-66
2022/05/22 02:03:55;;;;;;;6.47;1.20;;;;;;;22.50;37.18;100864.50;2508662;23;20163;-65
2022/05/22 02:04:56;;;;;;;2.93;1.03;;;;;;;23.06;37.10;100958.66;2520855;23;20410;-66
2022/05/22 02:05:56;;;;;;;3.67;1.20;;;;;;;23.13;36.74;100958.94;2521260;23;20158;-66
2022/05/22 02:08:19;;;;;;;6.80;1.30;;;;;;;23.07;37.64;100963.81;2521161;23;20214;-66
2022/05/22 02:09:19;;;;;;;4.10;1.70;;;;;;;23.05;38.97;100957.91;2520532;23;20402;-66
2022/05/22 02:10:22;;;;;;;12.53;2.00;;;;;;;22.52;39.44;100875.31;2520564;23;20389;-65
2022/05/22 02:11:23;;;;;;;5.57;1.10;;;;;;;23.03;37.82;100973.84;2520990;23;20420;-66
2022/05/22 02:12:23;;;;;;;5.03;1.30;;;;;;;23.00;38.15;100955.84;2521114;23;20877;-65
2022/05/22 02:13:30;;;;;;;6.97;1.60;;;;;;;22.44;38.63;100877.84;2508114;23;20167;-65
2022/05/22 02:14:30;;;;;;;7.00;2.00;;;;;;;22.96;39.63;100958.13;2509761;23;20144;-66
2022/05/22 02:15:31;;;;;;;4.67;1.17;;;;;;;22.63;38.06;100912.06;2521048;23;20386;-66
2022/05/22 02:16:31;;;;;;;4.70;1.20;;;;;;;22.99;36.79;100950.69;2520819;23;20155;-66
2022/05/22 02:17:33;;;;;;;2.90;1.17;;;;;;;22.98;37.00;100947.09;2520594;23;20151;-65
2022/05/22 02:18:33;;;;;;;4.00;1.30;;;;;;;22.94;38.59;100948.63;2520808;23;20158;-66
2022/05/22 02:19:34;;;;;;;1.40;0.90;;;;;;;23.02;36.08;100944.03;2520877;23;20466;-65
2022/05/22 02:20:34;;;;;;;4.87;1.20;;;;;;;22.96;35.55;100931.91;2520452;23;20153;-66
2022/05/22 02:21:34;;;;;;;2.93;1.10;;;;;;;23.12;35.76;100948.94;2520954;23;20614;-65
2022/05/22 02:22:43;;;;;;;3.80;1.03;;;;;;;23.10;37.08;100953.53;2508202;23;20175;-65
2022/05/22 02:23:44;;;;;;;4.90;1.40;;;;;;;23.02;37.78;100947.63;2510041;23;20152;-66
2022/05/22 02:24:50;;;;;;;4.57;1.10;;;;;;;23.15;36.34;100959.22;2520919;23;20238;-66
2022/05/22 02:25:53;;;;;;;2.93;1.10;;;;;;;23.21;35.61;100954.38;2521062;23;20165;-65
2022/05/22 02:26:53;;;;;;;2.70;1.00;;;;;;;23.31;35.03;100952.06;2520067;23;20218;-66
2022/05/22 02:27:54;;;;;;;5.23;1.07;;;;;;;23.23;35.26;100943.31;2520873;23;20597;-65
2022/05/22 02:28:55;;;;;;;2.97;1.00;;;;;;;23.30;35.30;100959.78;2520594;23;20230;-66
2022/05/22 02:29:59;;;;;;;4.67;1.20;;;;;;;23.39;34.96;100953.13;2507670;23;20380;-65
2022/05/22 02:31:01;;;;;;;3.03;0.93;;;;;;;23.46;34.94;100952.59;2508590;23;20196;-65
2022/05/22 02:32:03;;;;;;;2.43;1.00;;;;;;;23.56;34.84;100971.66;2521048;23;20411;-66
2022/05/22 02:33:05;;;;;;;3.30;1.10;;;;;;;23.46;34.16;100944.13;2507870;23;20164;-65
2022/05/22 02:34:05;;;;;;;1.67;0.83;;;;;;;23.16;34.28;100887.25;2508664;23;20158;-65
2022/05/22 02:35:08;;;;;;;3.83;1.00;;;;;;;23.75;34.23;100961.34;2520758;23;20602;-66
2022/05/22 02:36:13;;;;;;;2.37;1.13;;;;;;;23.78;34.32;100960.31;2521210;23;20605;-65
2022/05/22 02:37:14;;;;;;;3.13;1.20;;;;;;;23.62;34.17;100935.63;2507089;23;20176;-66
2022/05/22 02:38:16;;;;;;;3.77;1.10;;;;;;;23.81;34.24;100973.44;2508443;23;20180;-65
2022/05/22 02:39:18;;;;;;;2.03;0.90;;;;;;;23.84;34.06;100961.09;2520570;23;20154;-66
2022/05/22 02:40:21;;;;;;;2.50;0.93;;;;;;;23.83;34.26;100961.59;2520753;23;20182;-65
2022/05/22 02:41:25;;;;;;;3.40;1.00;;;;;;;23.67;34.24;100942.56;2520839;23;20155;-66
2022/05/22 02:42:25;;;;;;;4.27;0.90;;;;;;;23.87;34.30;100954.41;2521017;23;20606;-65
2022/05/22 02:43:26;;;;;;;1.10;0.90;;;;;;;23.85;34.32;100959.78;2520773;23;20553;-65
2022/05/22 02:44:26;;;;;;;4.10;1.10;;;;;;;23.85;34.26;100959.78;2508332;23;20541;-66
2022/05/22 02:45:30;;;;;;;2.40;1.00;;;;;;;23.38;34.37;100895.78;2508173;23;20175;-66
2022/05/22 02:46:31;;;;;;;1.70;1.10;;;;;;;23.84;34.46;100957.50;2521068;23;20370;-65
2022/05/22 02:47:33;;;;;;;2.03;1.00;;;;;;;23.54;34.51;100917.63;2520066;23;20294;-66
2022/05/22 02:48:33;;;;;;;5.07;1.10;;;;;;;23.82;34.75;100963.66;2520777;23;20151;-66
2022/05/22 02:49:34;;;;;;;3.67;1.30;;;;;;;23.56;34.33;100917.13;2507981;23;20412;-65
2022/05/22 02:50:35;;;;;;;3.87;1.03;;;;;;;23.95;34.32;100968.84;2507859;23;20155;-65
2022/05/22 02:51:37;;;;;;;2.90;1.00;;;;;;;23.93;34.52;100969.34;2520754;23;20157;-66
2022/05/22 02:52:37;;;;;;;3.37;1.07;;;;;;;23.89;34.66;100968.06;2520980;23;20147;-66
2022/05/22 02:53:38;;;;;;;2.93;1.07;;;;;;;23.91;34.58;100976.81;2520719;23;20234;-66
2022/05/22 02:54:38;;;;;;;4.23;1.20;;;;;;;23.21;34.42;100861.06;2521071;23;20147;-66
2022/05/22 02:55:41;;;;;;;2.77;1.07;;;;;;;23.98;34.30;100979.09;2520778;23;20151;-66
2022/05/22 02:56:42;;;;;;;4.10;1.10;;;;;;;23.97;34.31;100969.88;2520309;23;20159;-65
2022/05/22 02:57:43;;;;;;;3.80;1.27;;;;;;;23.97;34.01;100967.03;2520718;23;20573;-65
2022/05/22 02:58:44;;;;;;;3.40;1.13;;;;;;;23.94;34.35;100968.06;2520613;23;20182;-65
2022/05/22 02:59:44;;;;;;;4.67;1.20;;;;;;;23.91;34.69;100971.16;2520826;23;20641;-65
2022/05/22 03:00:45;;;;;;;4.80;1.20;;;;;;;23.88;34.52;100969.31;2520352;23;20507;-65
2022/05/22 03:01:45;;;;;;;1.90;1.13;;;;;;;23.67;34.53;100959.53;2520793;23;20151;-65
2022/05/22 03:02:46;;;;;;;3.20;1.00;;;;;;;23.52;34.64;100923.03;2520629;23;20662;-65
2022/05/22 03:03:46;;;;;;;4.57;1.07;;;;;;;23.86;34.68;100977.56;2520952;23;20718;-65
2022/05/22 03:04:49;;;;;;;3.87;1.07;;;;;;;23.90;34.55;100969.59;2520848;23;20151;-65
2022/05/22 03:07:14;;;;;;;4.57;1.20;;;;;;;23.79;34.80;100970.34;2520024;23;20182;-66
2022/05/22 03:08:16;;;;;;;3.77;1.00;;;;;;;23.79;34.76;100978.09;2520963;23;20135;-66
2022/05/22 03:09:17;;;;;;;4.10;1.17;;;;;;;23.67;34.97;100968.81;2520510;23;20234;-65
2022/05/22 03:10:18;;;;;;;7.33;1.33;;;;;;;23.42;34.77;100930.22;2520332;23;20387;-66
2022/05/22 03:11:19;;;;;;;3.93;1.13;;;;;;;23.71;34.95;100977.81;2520664;23;20155;-66
2022/05/22 03:12:22;;;;;;;4.37;1.20;;;;;;;22.89;35.01;100850.47;2520973;23;20632;-66
2022/05/22 03:13:22;;;;;;;1.47;0.87;;;;;;;23.72;35.16;100979.38;2520571;23;20148;-65
2022/05/22 03:14:23;;;;;;;5.60;1.17;;;;;;;23.70;35.34;100986.81;2521147;23;20415;-65
2022/05/22 03:15:24;;;;;;;3.20;0.93;;;;;;;23.67;35.37;100988.63;2520511;23;20208;-65
2022/05/22 03:16:24;;;;;;;4.17;1.20;;;;;;;23.65;35.29;100988.34;2521064;23;20606;-66
2022/05/22 03:17:25;;;;;;;3.43;1.00;;;;;;;23.64;35.38;100986.06;2519709;23;20590;-66
2022/05/22 03:18:26;;;;;;;2.37;0.80;;;;;;;23.66;35.28;100995.56;2520915;23;20153;-66
2022/05/22 03:19:27;;;;;;;3.63;1.00;;;;;;;23.36;35.38;100945.66;2520727;23;20147;-65
2022/05/22 03:20:30;;;;;;;4.47;1.10;;;;;;;23.17;35.62;100931.19;2520345;23;20147;-65
2022/05/22 03:21:30;;;;;;;3.43;1.20;;;;;;;23.37;35.68;100967.75;2521065;23;20201;-65
2022/05/22 03:22:31;;;;;;;2.27;1.00;;;;;;;23.49;36.09;101003.25;2520900;23;20657;-65
2022/05/22 03:23:32;;;;;;;3.77;1.10;;;;;;;23.38;35.79;100991.94;2520638;23;20151;-66
2022/05/22 03:24:32;;;;;;;3.93;1.37;;;;;;;23.42;36.11;101003.78;2520952;23;20175;-65
2022/05/22 03:25:33;;;;;;;2.13;1.07;;;;;;;23.42;35.93;101002.97;2520680;23;20166;-66
2022/05/22 03:26:34;;;;;;;2.53;1.20;;;;;;;23.42;35.79;101002.97;2520511;23;20505;-66
2022/05/22 03:27:34;;;;;;;2.33;1.10;;;;;;;23.35;36.04;101001.44;2519998;23;20190;-66
2022/05/22 03:28:35;;;;;;;4.03;1.10;;;;;;;22.75;36.44;100927.75;2520655;23;20151;-66
2022/05/22 03:29:39;;;;;;;2.63;0.90;;;;;;;23.35;36.14;101009.94;2520613;23;20151;-66
2022/05/22 03:30:58;;;;;;;4.73;1.23;;;;;;;23.34;36.39;101004.78;2520334;23;20508;-66
2022/05/22 03:31:59;;;;;;;4.90;1.20;;;;;;;23.34;37.42;101011.19;2521009;23;20386;-65
2022/05/22 03:32:59;;;;;;;1.87;0.90;;;;;;;22.90;36.48;100948.09;2520503;23;20182;-66
2022/05/22 03:34:00;;;;;;;3.80;1.07;;;;;;;23.35;36.40;101015.59;2521040;23;20174;-66
2022/05/22 03:35:00;;;;;;;3.70;1.37;;;;;;;22.89;36.17;100950.16;2520566;23;20563;-66
2022/05/22 03:36:01;;;;;;;4.57;1.40;;;;;;;23.34;36.65;101021.75;2521093;23;20158;-66
2022/05/22 03:37:02;;;;;;;4.67;1.27;;;;;;;23.38;37.08;101019.44;2519740;23;20155;-66
2022/05/22 03:38:04;;;;;;;6.60;1.00;;;;;;;23.45;36.87;101025.38;2507984;23;20163;-66
2022/05/22 03:39:04;;;;;;;5.03;1.00;;;;;;;23.46;37.64;101018.44;2507876;23;20704;-66
2022/05/22 03:40:05;;;;;;;5.80;1.67;;;;;;;23.49;37.08;101020.22;2520445;23;20775;-65
2022/05/22 03:41:06;;;;;;;3.50;1.00;;;;;;;23.54;36.20;101019.47;2520499;23;20246;-66
2022/05/22 03:42:07;;;;;;;6.80;1.30;;;;;;;23.15;36.24;100973.34;2520895;23;20410;-66
2022/05/22 03:43:07;;;;;;;5.43;1.10;;;;;;;23.57;36.77;101026.94;2521182;23;20155;-66
2022/05/22 03:44:08;;;;;;;4.30;1.53;;;;;;;23.61;37.08;101021.81;2521801;23;20158;-65
2022/05/22 03:45:09;;;;;;;3.17;0.93;;;;;;;23.59;37.16;101026.44;2521375;23;20234;-66
2022/05/22 03:46:10;;;;;;;4.93;1.20;;;;;;;23.60;37.62;101025.91;2521933;23;20483;-65
2022/05/22 03:47:10;;;;;;;2.37;1.10;;;;;;;23.55;37.72;101017.41;2520700;23;20760;-66
2022/05/22 03:48:11;;;;;;;2.70;1.13;;;;;;;23.66;36.97;101029.53;2521564;23;20234;-66
2022/05/22 03:49:12;;;;;;;4.10;1.10;;;;;;;23.32;36.95;100976.22;2521186;23;20254;-66
2022/05/22 03:50:14;;;;;;;3.17;0.93;;;;;;;23.69;37.15;101036.22;2521028;23;20242;-65
2022/05/22 03:51:15;;;;;;;4.27;1.03;;;;;;;23.71;37.47;101040.06;2521446;23;20514;-65
2022/05/22 03:52:15;;;;;;;4.87;1.37;;;;;;;23.72;37.08;101035.16;2521756;23;20383;-66
2022/05/22 03:53:16;;;;;;;1.43;1.00;;;;;;;23.68;37.26;101031.81;2521471;23;20482;-65
2022/05/22 03:54:16;;;;;;;3.73;1.07;;;;;;;23.72;37.65;101032.34;2521797;23;20176;-66
2022/05/22 03:55:17;;;;;;;3.63;1.13;;;;;;;23.75;37.78;101039.81;2521430;23;20254;-66
2022/05/22 03:56:19;;;;;;;3.20;1.00;;;;;;;23.19;38.00;100942.03;2521767;23;20162;-65
2022/05/22 03:57:19;;;;;;;3.60;1.20;;;;;;;23.26;38.26;100967.75;2520422;23;20278;-66
2022/05/22 03:58:20;;;;;;;3.97;1.30;;;;;;;22.90;38.29;100923.44;2521905;23;20159;-66
2022/05/22 03:59:20;;;;;;;4.27;1.50;;;;;;;22.50;37.94;100866.56;2508446;23;20517;-65
2022/05/22 04:00:23;;;;;;;3.00;2.10;;;;;;;23.69;38.01;101048.28;2508688;23;20215;-66
2022/05/22 04:01:24;;;;;;;6.00;1.87;;;;;;;23.69;38.03;101051.13;2508546;23;20509;-65
2022/05/22 04:02:24;;;;;;;10.87;2.70;;;;;;;23.60;37.69;101042.88;2508960;23;20420;-65
2022/05/22 04:03:25;;;;;;;7.60;3.67;;;;;;;23.65;37.44;101039.28;2509430;23;20602;-66
2022/05/22 04:04:25;;;;;;;6.87;2.43;;;;;;;23.34;37.71;101001.97;2509852;23;20565;-66
2022/05/22 04:05:27;;;;;;;3.93;2.57;;;;;;;23.05;37.76;100959.94;2509243;23;20218;-66
2022/05/22 04:06:28;;;;;;;2.97;1.83;;;;;;;23.69;38.04;101047.53;2509883;23;20191;-65
2022/05/22 04:07:28;;;;;;;10.57;1.40;;;;;;;23.22;37.69;100980.56;2508588;23;20183;-65
2022/05/22 04:08:30;;;;;;;2.47;1.10;;;;;;;23.70;37.46;101055.50;2509677;23;20670;-66
2022/05/22 04:09:30;;;;;;;5.87;1.37;;;;;;;23.67;37.62;101058.56;2509312;23;20159;-65
2022/05/22 04:10:31;;;;;;;5.70;2.33;;;;;;;23.47;37.78;101036.16;2508363;23;20164;-65
2022/05/22 04:11:32;;;;;;;4.50;2.00;;;;;;;23.53;37.77;101053.91;2508834;23;20195;-66
2022/05/22 04:12:33;;;;;;;3.53;1.67;;;;;;;23.47;38.13;101053.91;2509693;23;20498;-66
2022/05/22 04:13:33;;;;;;;8.97;2.37;;;;;;;23.50;38.14;101049.28;2509618;23;20182;-66
2022/05/22 04:14:34;;;;;;;4.57;1.40;;;;;;;23.53;37.80;101042.59;2509662;23;20207;-65
2022/05/22 04:15:34;;;;;;;4.37;1.53;;;;;;;23.48;38.06;101049.81;2509516;23;20154;-65
2022/05/22 04:16:35;;;;;;;2.87;1.30;;;;;;;23.09;38.38;100997.25;2509122;23;20227;-65
2022/05/22 04:17:36;;;;;;;4.40;1.40;;;;;;;22.99;38.35;100995.91;2509211;23;20179;-66
2022/05/22 04:18:36;;;;;;;2.47;1.30;;;;;;;22.97;38.09;100982.28;2508620;23;20151;-66
2022/05/22 04:19:38;;;;;;;3.67;1.10;;;;;;;23.41;38.06;101044.66;2496679;23;20187;-65
2022/05/22 04:20:38;;;;;;;2.97;0.97;;;;;;;23.45;39.01;101047.22;2508412;23;20147;-66
2022/05/22 04:21:39;;;;;;;4.60;1.13;;;;;;;23.46;38.86;101052.38;2509613;23;20152;-66
2022/05/22 04:25:21;;;;;;;3.87;0.97;;;;;;;23.31;39.56;101036.91;2509589;23;20144;-66
2022/05/22 04:26:26;;;;;;;3.67;1.07;;;;;;;23.41;39.22;101055.97;2509771;23;20156;-66
2022/05/22 04:27:27;;;;;;;1.77;0.97;;;;;;;23.21;39.18;101027.88;2508365;23;20176;-66
2022/05/22 04:28:29;;;;;;;4.70;1.03;;;;;;;23.45;38.99;101059.31;2509758;23;20148;-65
2022/05/22 04:29:35;;;;;;;3.57;1.07;;;;;;;23.48;38.72;101077.31;2509161;23;20151;-66
2022/05/22 04:30:35;;;;;;;2.57;1.10;;;;;;;23.51;38.75;101059.31;2508916;23;20147;-66
2022/05/22 04:31:36;;;;;;;4.63;1.40;;;;;;;23.50;38.74;101066.28;2509442;23;20155;-66
2022/05/22 04:32:36;;;;;;;6.37;1.20;;;;;;;23.47;38.75;101051.09;2509597;23;20147;-66
2022/05/22 04:33:37;;;;;;;4.13;1.23;;;;;;;23.48;39.27;101066.78;2509345;23;20175;-66
2022/05/22 04:34:37;;;;;;;3.37;1.10;;;;;;;23.44;39.00;101065.50;2509573;23;20179;-66
2022/05/22 04:35:38;;;;;;;3.60;1.20;;;;;;;23.40;38.78;101056.47;2509528;23;20147;-65
2022/05/22 04:36:38;;;;;;;4.77;1.30;;;;;;;23.48;38.80;101066.00;2508984;23;20231;-66
2022/05/22 04:37:39;;;;;;;2.13;0.90;;;;;;;23.48;38.90;101057.50;2509448;23;20489;-65
2022/05/22 04:38:40;;;;;;;2.23;1.20;;;;;;;23.42;38.79;101063.16;2509414;23;20179;-66
2022/05/22 04:39:40;;;;;;;2.47;0.97;;;;;;;23.40;39.01;101053.66;2509513;23;20862;-65
2022/05/22 04:40:41;;;;;;;2.03;1.10;;;;;;;22.88;38.95;100993.81;2509002;23;20152;-66
2022/05/22 04:41:42;;;;;;;2.43;1.13;;;;;;;23.38;39.19;101067.53;2509398;23;20512;-65
2022/05/22 04:42:42;;;;;;;3.80;1.30;;;;;;;22.55;39.08;100933.59;2509548;23;20407;-66
2022/05/22 04:43:43;;;;;;;4.77;1.00;;;;;;;23.12;39.37;101045.03;2509461;23;20227;-65
2022/05/22 04:44:44;;;;;;;4.57;1.27;;;;;;;23.24;39.50;101060.78;2508598;23;20164;-66
2022/05/22 04:45:45;;;;;;;4.13;1.20;;;;;;;23.30;39.68;101063.66;2508707;23;20222;-65
2022/05/22 04:46:45;;;;;;;3.40;1.30;;;;;;;23.31;40.00;101065.19;2508800;23;20156;-65
2022/05/22 04:47:46;;;;;;;3.93;1.13;;;;;;;23.30;39.95;101060.81;2509107;23;20187;-65
2022/05/22 04:48:46;;;;;;;3.60;1.33;;;;;;;23.17;39.86;101038.63;2509292;23;20160;-65
2022/05/22 04:49:49;;;;;;;3.10;1.03;;;;;;;23.27;39.85;101075.97;2509066;23;20187;-65
2022/05/22 04:50:52;;;;;;;3.60;1.17;;;;;;;23.17;40.26;101057.63;2509576;23;20479;-65
2022/05/22 04:51:52;;;;;;;3.27;1.20;;;;;;;23.17;40.35;101063.28;2509397;23;20392;-65
2022/05/22 04:52:55;;;;;;;4.10;1.17;;;;;;;23.22;40.43;101073.88;2509162;23;20267;-65
2022/05/22 04:53:56;;;;;;;2.43;1.30;;;;;;;23.18;40.51;101074.13;2508708;23;20203;-65
2022/05/22 04:54:56;;;;;;;3.47;1.27;;;;;;;23.21;40.50;101061.81;2508405;23;20391;-65
2022/05/22 04:55:57;;;;;;;2.97;1.23;;;;;;;;;;2508777;23;20159;-65